Time;durP1;ratioP1;P1;durP2;ratioP2;P2;SDS_P1;SDS_P2;PMS_P1;PMS_P2;Temp;Humidity;BMP_temperature;BMP_pressure;BME280_temperature;BME280_humidity;BME280_pressure;Samples;Min_cycle;Max_cycle;Signal;HPM_P1;HPM_P2
2023/07/08 00:01:47;;;;;;;5.75;3.80;;;;;;;18.62;60.90;101585.38;6216552;22;20028;-70
2023/07/08 00:09:23;;;;;;;5.53;4.00;;;;;;;18.41;62.20;101563.06;6220064;23;20036;-67
2023/07/08 00:11:48;;;;;;;7.25;4.53;;;;;;;18.41;62.44;101570.16;6214047;23;20032;-67
2023/07/08 00:14:14;;;;;;;6.05;4.18;;;;;;;18.45;61.90;101569.16;6220242;23;20008;-67
2023/07/08 00:16:39;;;;;;;7.65;4.70;;;;;;;18.42;61.96;101564.81;6218667;23;20008;-67
2023/07/08 00:19:09;;;;;;;7.25;4.10;;;;;;;18.37;62.46;101568.53;6218363;23;20422;-67
2023/07/08 00:21:34;;;;;;;6.57;4.65;;;;;;;18.33;63.31;101563.31;6218349;23;20007;-67
2023/07/08 00:24:00;;;;;;;8.07;4.38;;;;;;;18.09;64.36;101566.78;6217229;23;20054;-67
2023/07/08 00:26:28;;;;;;;7.60;4.60;;;;;;;18.18;62.93;101569.13;6218068;23;20015;-67
2023/07/08 00:28:54;;;;;;;8.35;4.60;;;;;;;18.09;63.50;101561.47;6243772;23;20442;-71
2023/07/08 00:31:23;;;;;;;11.43;5.00;;;;;;;17.96;64.31;101553.03;6242687;23;20098;-70
2023/07/08 00:33:58;;;;;;;7.55;4.50;;;;;;;17.96;63.92;101553.88;6223481;22;20432;-71
2023/07/08 00:36:26;;;;;;;8.52;4.35;;;;;;;17.95;63.87;101551.28;6247701;22;20092;-70
2023/07/08 00:38:51;;;;;;;4.63;4.05;;;;;;;17.85;64.37;101545.34;6222408;22;20015;-71
2023/07/08 00:41:28;;;;;;;10.73;4.47;;;;;;;17.87;64.06;101548.84;6198023;22;20057;-70
2023/07/08 00:43:55;;;;;;;5.90;4.53;;;;;;;17.79;64.48;101551.72;6247551;22;20004;-71
2023/07/08 00:46:27;;;;;;;8.65;3.80;;;;;;;17.77;64.16;101552.66;6247307;22;20434;-71
2023/07/08 00:48:58;;;;;;;6.40;3.92;;;;;;;17.75;64.17;101543.91;6247562;22;20011;-71
2023/07/08 00:51:24;;;;;;;5.60;4.07;;;;;;;17.77;64.24;101542.06;6247985;22;20033;-71
2023/07/08 00:53:50;;;;;;;7.45;4.30;;;;;;;17.72;64.51;101542.22;6221783;22;20012;-71
2023/07/08 00:56:23;;;;;;;6.40;4.30;;;;;;;17.71;64.70;101543.13;6247140;22;20432;-71
2023/07/08 00:58:53;;;;;;;5.65;4.00;;;;;;;17.68;64.46;101543.22;6247713;22;20004;-71
2023/07/08 01:01:19;;;;;;;7.22;4.13;;;;;;;17.74;64.54;101537.75;6274894;22;20022;-71
2023/07/08 01:03:55;;;;;;;6.38;4.22;;;;;;;17.70;64.35;101537.88;6222658;22;20496;-71
2023/07/08 01:06:31;;;;;;;9.32;4.55;;;;;;;17.69;64.70;101538.81;6247347;22;20012;-70
2023/07/08 01:08:59;;;;;;;6.40;4.63;;;;;;;17.65;64.85;101543.31;6245264;22;20011;-71
2023/07/08 01:11:25;;;;;;;7.72;4.28;;;;;;;17.65;64.57;101543.31;6222535;22;20020;-71
2023/07/08 01:13:51;;;;;;;6.82;4.13;;;;;;;17.60;65.17;101540.81;6222472;22;20107;-71
2023/07/08 01:16:17;;;;;;;5.13;4.15;;;;;;;17.65;64.58;101549.47;6247269;22;20000;-71
2023/07/08 01:18:52;;;;;;;7.93;4.43;;;;;;;17.57;65.33;101542.66;6222530;22;20016;-71
2023/07/08 01:21:36;;;;;;;6.05;3.90;;;;;;;17.59;65.48;101543.50;6247744;22;20329;-71
2023/07/08 01:24:09;;;;;;;7.00;4.70;;;;;;;17.55;65.43;101542.72;6246955;22;20188;-71
2023/07/08 01:26:38;;;;;;;8.15;4.38;;;;;;;17.57;65.58;101540.03;6248035;22;20004;-71
2023/07/08 01:29:04;;;;;;;9.55;4.15;;;;;;;17.55;65.72;101537.41;6247502;22;20122;-70
2023/07/08 01:31:29;;;;;;;6.13;3.78;;;;;;;17.61;65.27;101542.56;6247538;22;20004;-70
2023/07/08 01:33:55;;;;;;;6.07;4.13;;;;;;;17.60;65.04;101537.31;6222416;22;20014;-71
2023/07/08 01:36:21;;;;;;;6.55;3.63;;;;;;;17.62;64.82;101538.97;6222234;22;20282;-71
2023/07/08 01:38:47;;;;;;;7.22;4.07;;;;;;;17.60;65.23;101535.50;6246669;22;20315;-71
2023/07/08 01:41:15;;;;;;;6.85;3.90;;;;;;;17.59;65.22;101533.78;6222034;22;20010;-71
2023/07/08 01:43:40;;;;;;;6.20;4.15;;;;;;;17.57;65.30;101529.41;6247172;22;20008;-71
2023/07/08 01:46:20;;;;;;;7.55;4.38;;;;;;;17.58;65.41;101528.50;6221177;22;20015;-71
2023/07/08 01:48:50;;;;;;;5.43;3.80;;;;;;;17.57;65.52;101532.06;6247366;22;20011;-71
2023/07/08 01:51:15;;;;;;;6.82;4.07;;;;;;;17.50;66.07;101526.09;6246978;22;20004;-71
2023/07/08 01:53:42;;;;;;;6.43;4.00;;;;;;;17.47;66.23;101521.75;6246216;22;20069;-71
2023/07/08 01:56:09;;;;;;;5.82;3.95;;;;;;;17.47;66.04;101523.56;6247128;22;20038;-71
2023/07/08 01:58:35;;;;;;;6.63;3.95;;;;;;;17.47;65.93;101515.59;6222170;22;20043;-71
2023/07/08 02:01:01;;;;;;;6.70;4.28;;;;;;;17.42;66.61;101521.03;6221563;22;20014;-71
2023/07/08 02:03:27;;;;;;;7.97;4.20;;;;;;;17.44;66.39;101508.59;6247070;22;20011;-71
2023/07/08 02:05:53;;;;;;;9.20;4.00;;;;;;;17.44;65.82;101494.47;6221682;22;20022;-71
2023/07/08 02:08:19;;;;;;;6.20;4.15;;;;;;;17.39;65.98;101494.63;6221056;22;20298;-71
2023/07/08 02:10:50;;;;;;;7.55;3.90;;;;;;;17.39;65.88;101491.13;6246722;22;20007;-71
2023/07/08 02:13:16;;;;;;;6.80;3.88;;;;;;;17.39;65.97;101484.03;6246783;22;20065;-71
2023/07/08 02:15:43;;;;;;;5.72;4.13;;;;;;;17.37;65.92;101495.56;6274053;22;19999;-71
2023/07/08 02:18:09;;;;;;;6.22;4.03;;;;;;;17.37;65.66;101495.56;6247004;22;20003;-70
2023/07/08 02:20:34;;;;;;;4.57;4.13;;;;;;;17.33;66.17;101491.31;6222126;22;20015;-71
2023/07/08 02:23:00;;;;;;;6.20;4.07;;;;;;;17.36;66.00;101491.22;6220875;22;20089;-71
2023/07/08 02:25:25;;;;;;;9.68;4.38;;;;;;;17.29;66.17;101486.06;6221120;22;20318;-71
2023/07/08 02:27:52;;;;;;;5.47;4.35;;;;;;;17.29;66.08;101486.06;6221553;22;20082;-70
2023/07/08 02:30:17;;;;;;;5.60;4.22;;;;;;;17.23;65.98;101486.25;6246956;22;20007;-71
2023/07/08 02:32:48;;;;;;;8.63;4.47;;;;;;;17.17;66.64;101482.91;6221184;22;20016;-71
2023/07/08 02:35:14;;;;;;;6.68;4.40;;;;;;;17.17;66.49;101472.31;6222354;22;20102;-70
2023/07/08 02:37:39;;;;;;;6.97;4.68;;;;;;;17.07;67.37;101480.53;6219700;22;20547;-71
2023/07/08 02:40:06;;;;;;;8.18;4.60;;;;;;;17.06;67.54;101475.28;6221614;22;20094;-70
2023/07/08 02:42:31;;;;;;;5.57;4.20;;;;;;;17.02;67.22;101486.88;6221469;22;20370;-71
2023/07/08 02:44:57;;;;;;;6.88;4.60;;;;;;;16.95;67.71;101476.47;6220719;22;20136;-70
2023/07/08 02:47:22;;;;;;;6.30;4.57;;;;;;;17.03;67.58;101478.03;6245714;22;20015;-71
2023/07/08 02:49:48;;;;;;;5.80;4.20;;;;;;;16.94;67.85;101477.38;6221861;22;20430;-70
2023/07/08 02:52:13;;;;;;;7.57;4.55;;;;;;;16.93;67.89;101469.47;6246819;22;20014;-70
2023/07/08 02:54:39;;;;;;;7.75;4.80;;;;;;;16.88;67.95;101480.22;6219827;22;20091;-70
2023/07/08 02:57:04;;;;;;;6.93;4.32;;;;;;;16.84;68.40;101481.16;6221575;22;20137;-70
2023/07/08 02:59:30;;;;;;;6.70;4.60;;;;;;;16.83;68.47;101479.41;6246802;22;20487;-71
2023/07/08 03:01:55;;;;;;;7.63;5.00;;;;;;;16.77;69.06;101476.94;6221289;22;20175;-71
2023/07/08 03:04:21;;;;;;;7.00;4.35;;;;;;;16.73;68.94;101476.16;6246945;22;20065;-70
2023/07/08 03:06:50;;;;;;;8.13;4.65;;;;;;;16.66;69.02;101476.38;6221414;22;20086;-71
2023/07/08 03:09:15;;;;;;;7.50;4.45;;;;;;;16.65;69.12;101480.81;6245869;22;20027;-71
2023/07/08 03:11:41;;;;;;;7.10;4.57;;;;;;;16.62;69.51;101479.09;6221565;22;20020;-71
2023/07/08 03:14:06;;;;;;;6.60;4.10;;;;;;;16.59;69.45;101481.84;6221828;22;20007;-71
2023/07/08 03:16:32;;;;;;;7.90;5.13;;;;;;;16.57;69.57;101478.34;6246444;22;20248;-71
2023/07/08 03:18:58;;;;;;;6.05;4.25;;;;;;;16.56;69.57;101484.53;6220699;22;20015;-70
2023/07/08 03:21:23;;;;;;;7.25;4.70;;;;;;;16.54;69.67;101478.44;6221902;22;20430;-71
2023/07/08 03:23:50;;;;;;;8.05;4.97;;;;;;;16.52;69.75;101482.91;6220945;22;20386;-71
2023/07/08 03:26:20;;;;;;;7.40;4.63;;;;;;;16.44;70.42;101477.81;6246910;22;20003;-71
2023/07/08 03:28:50;;;;;;;7.15;4.95;;;;;;;16.49;70.08;101482.97;6246620;22;20000;-71
2023/07/08 03:31:16;;;;;;;6.30;4.65;;;;;;;16.50;69.89;101483.84;6245203;22;20485;-71
2023/07/08 03:33:42;;;;;;;7.05;4.32;;;;;;;16.51;70.04;101494.41;6246364;22;20003;-70
2023/07/08 03:36:12;;;;;;;8.63;4.85;;;;;;;16.47;70.09;101495.38;6221546;22;20290;-71
2023/07/08 03:38:38;;;;;;;10.05;5.25;;;;;;;16.50;70.21;101497.09;6245771;22;20370;-71
2023/07/08 03:41:04;;;;;;;7.82;4.82;;;;;;;16.44;70.26;101500.75;6196525;22;20050;-67
2023/07/08 03:43:29;;;;;;;6.88;4.68;;;;;;;16.39;70.46;101490.31;6196058;22;20096;-67
2023/07/08 03:45:55;;;;;;;6.90;4.65;;;;;;;16.36;70.60;101500.06;6220966;22;20031;-67
2023/07/08 03:48:20;;;;;;;6.10;4.43;;;;;;;16.30;71.15;101502.88;6221529;22;20317;-67
2023/07/08 03:50:46;;;;;;;8.52;5.22;;;;;;;16.22;71.70;101503.94;6221683;22;20030;-67
2023/07/08 03:53:11;;;;;;;9.95;5.20;;;;;;;16.20;71.93;101495.16;6245730;22;20278;-67
2023/07/08 03:55:37;;;;;;;7.47;4.63;;;;;;;16.21;71.64;101491.63;6220912;22;20401;-67
2023/07/08 03:58:02;;;;;;;6.82;4.97;;;;;;;16.19;71.71;101488.16;6220990;22;20025;-67
2023/07/08 04:00:28;;;;;;;6.43;4.85;;;;;;;16.17;72.09;101497.03;6223348;22;20010;-67
2023/07/08 04:02:53;;;;;;;7.18;4.70;;;;;;;16.24;72.26;101499.47;6247896;22;20010;-67
2023/07/08 04:05:21;;;;;;;8.68;4.60;;;;;;;16.37;71.56;101496.53;6223358;22;20011;-67
2023/07/08 04:07:47;;;;;;;9.68;4.80;;;;;;;16.53;70.82;101497.84;6246508;22;19999;-67
2023/07/08 04:10:14;;;;;;;6.82;4.63;;;;;;;16.71;70.07;101500.94;6197893;22;20030;-67
2023/07/08 04:12:39;;;;;;;7.72;5.15;;;;;;;16.84;69.56;101499.69;6223102;22;20050;-67
2023/07/08 04:15:08;;;;;;;7.88;5.40;;;;;;;16.96;69.48;101502.03;6222757;22;20004;-68
2023/07/08 04:17:41;;;;;;;6.55;4.50;;;;;;;17.12;68.41;101506.88;6247707;22;20073;-67
2023/07/08 04:20:10;;;;;;;5.95;4.75;;;;;;;17.25;67.91;101505.63;6247847;22;20088;-67
2023/07/08 04:22:36;;;;;;;8.02;4.85;;;;;;;17.56;67.26;101511.81;6247411;22;20007;-67
2023/07/08 04:25:04;;;;;;;5.88;4.60;;;;;;;17.80;66.57;101504.84;6223476;22;20152;-67
2023/07/08 04:27:29;;;;;;;5.63;4.45;;;;;;;17.94;66.01;101507.13;6223501;22;20031;-67
2023/07/08 04:29:55;;;;;;;5.90;4.38;;;;;;;18.23;64.67;101513.25;6223479;22;20007;-67
2023/07/08 04:32:24;;;;;;;10.95;4.32;;;;;;;18.60;64.15;101499.59;6219738;22;20437;-67
2023/07/08 04:34:51;;;;;;;6.28;4.55;;;;;;;18.92;62.80;101513.56;6221848;22;20103;-67
2023/07/08 04:37:16;;;;;;;5.63;4.13;;;;;;;19.25;61.92;101510.59;6222425;22;20061;-67
2023/07/08 04:39:42;;;;;;;6.95;4.65;;;;;;;19.47;61.51;101505.31;6222261;22;20007;-67
2023/07/08 04:42:07;;;;;;;6.78;4.38;;;;;;;20.11;61.12;101498.38;6222821;22;20008;-67
2023/07/08 04:44:32;;;;;;;5.72;4.45;;;;;;;20.18;59.23;101494.53;6247750;22;20425;-67
2023/07/08 04:46:58;;;;;;;7.43;4.63;;;;;;;20.57;58.20;101498.22;6197421;22;20353;-67
2023/07/08 04:49:27;;;;;;;5.60;4.70;;;;;;;21.09;57.44;101500.44;6197818;22;20035;-67
2023/07/08 04:51:53;;;;;;;9.17;4.87;;;;;;;21.35;56.28;101499.22;6199597;22;20124;-67
2023/07/08 04:54:18;;;;;;;7.38;4.60;;;;;;;21.39;55.92;101503.47;6222215;22;20507;-67
2023/07/08 04:56:46;;;;;;;7.55;4.22;;;;;;;21.30;55.18;101506.56;6222861;22;20276;-67
2023/07/08 04:59:18;;;;;;;6.00;4.20;;;;;;;21.51;54.74;101514.50;6248175;22;20081;-67
2023/07/08 05:01:44;;;;;;;5.05;4.35;;;;;;;21.73;53.79;101512.56;6247597;22;20102;-67
2023/07/08 05:04:13;;;;;;;7.25;4.78;;;;;;;21.96;55.11;101508.75;6222778;22;20018;-68
2023/07/08 05:06:39;;;;;;;8.10;4.38;;;;;;;22.01;52.34;101505.91;6247861;22;20011;-68
2023/07/08 05:09:05;;;;;;;6.30;4.55;;;;;;;22.37;52.23;101502.34;6221337;22;20156;-67
2023/07/08 05:11:31;;;;;;;7.57;5.07;;;;;;;21.86;53.12;101506.63;6221784;22;20020;-68
2023/07/08 05:13:56;;;;;;;7.40;4.63;;;;;;;21.59;53.96;101499.03;6222697;22;20019;-71
2023/07/08 05:16:22;;;;;;;6.70;4.75;;;;;;;21.23;54.99;101511.31;6222229;22;20004;-71
2023/07/08 05:18:48;;;;;;;8.38;5.10;;;;;;;21.69;54.16;101504.78;6247861;22;20007;-71
2023/07/08 05:21:14;;;;;;;10.27;5.47;;;;;;;22.56;52.47;101504.09;6221482;22;20088;-71
2023/07/08 05:23:40;;;;;;;13.88;5.60;;;;;;;22.97;50.43;101514.38;6246805;22;20000;-71
2023/07/08 05:26:09;;;;;;;11.75;5.47;;;;;;;23.63;50.30;101510.81;6222342;22;20034;-67
2023/07/08 05:28:35;;;;;;;8.75;5.25;;;;;;;23.98;49.06;101499.09;6248469;22;20456;-68
2023/07/08 05:31:00;;;;;;;9.00;5.35;;;;;;;23.99;47.71;101503.47;6221822;22;20401;-67
2023/07/08 05:33:28;;;;;;;7.72;4.90;;;;;;;24.11;48.11;101510.78;6247120;22;20367;-67
2023/07/08 05:35:54;;;;;;;7.15;4.93;;;;;;;24.34;47.63;101509.44;6274265;22;20010;-67
2023/07/08 05:38:19;;;;;;;10.02;4.63;;;;;;;24.61;47.58;101506.09;6220836;22;20405;-68
2023/07/08 05:40:54;;;;;;;7.50;4.57;;;;;;;25.13;47.34;101503.81;6222055;22;20086;-68
2023/07/08 05:43:19;;;;;;;6.57;5.13;;;;;;;24.82;45.55;101503.91;6246910;22;20054;-68
2023/07/08 05:45:45;;;;;;;12.45;5.03;;;;;;;24.81;46.23;101499.53;6221441;22;20090;-67
2023/07/08 05:48:11;;;;;;;13.10;6.00;;;;;;;25.11;45.52;101498.53;6222209;22;20011;-68
2023/07/08 05:50:37;;;;;;;10.80;5.20;;;;;;;25.19;45.39;101506.13;6221831;22;20338;-68
2023/07/08 05:53:03;;;;;;;14.43;5.38;;;;;;;25.09;46.99;101497.78;6221194;22;20460;-68
2023/07/08 05:55:29;;;;;;;20.95;6.43;;;;;;;24.62;46.18;101498.91;6274265;22;20015;-68
2023/07/08 05:57:54;;;;;;;13.38;5.85;;;;;;;23.73;48.47;101504.94;6246985;22;20087;-68
2023/07/08 06:00:20;;;;;;;12.60;5.90;;;;;;;22.92;50.99;101505.75;6221888;22;20306;-68
2023/07/08 06:02:45;;;;;;;15.30;5.78;;;;;;;22.55;51.85;101500.53;6221513;22;20010;-67
2023/07/08 06:05:11;;;;;;;21.35;6.30;;;;;;;22.29;53.66;101504.50;6247245;22;20433;-70
2023/07/08 06:07:36;;;;;;;18.02;6.65;;;;;;;22.94;52.47;101495.84;6220180;22;20357;-71
2023/07/08 06:10:03;;;;;;;20.20;7.03;;;;;;;22.55;52.66;101502.34;6221791;22;20433;-71
2023/07/08 06:12:30;;;;;;;15.40;6.75;;;;;;;22.73;53.04;101509.41;6247113;22;20008;-71
2023/07/08 06:14:55;;;;;;;11.27;5.50;;;;;;;23.44;53.05;101516.31;6222569;22;20007;-71
2023/07/08 06:17:21;;;;;;;9.07;4.55;;;;;;;24.25;49.50;101522.50;6221409;22;20019;-71
2023/07/08 06:19:46;;;;;;;13.25;5.13;;;;;;;25.05;49.91;101513.19;6221512;22;20417;-71
2023/07/08 06:22:11;;;;;;;7.28;4.57;;;;;;;25.53;47.00;101515.59;6222084;22;20042;-71
2023/07/08 06:24:37;;;;;;;8.35;4.90;;;;;;;25.74;45.47;101510.63;6220735;22;20309;-71
2023/07/08 06:27:05;;;;;;;12.82;4.20;;;;;;;26.21;44.49;101518.38;6246735;22;20379;-71
2023/07/08 06:29:31;;;;;;;7.10;4.38;;;;;;;26.19;43.09;101521.16;6246298;22;20099;-71
2023/07/08 06:31:56;;;;;;;8.27;4.47;;;;;;;26.62;43.79;101522.72;6220344;22;20524;-70
2023/07/08 06:34:23;;;;;;;9.63;4.25;;;;;;;27.14;43.81;101527.19;6221749;22;20016;-71
2023/07/08 06:36:49;;;;;;;7.47;4.57;;;;;;;27.34;42.03;101518.66;6222153;22;20007;-71
2023/07/08 06:39:16;;;;;;;7.13;4.35;;;;;;;27.59;41.52;101529.38;6245851;22;20512;-71
2023/07/08 06:41:42;;;;;;;8.00;4.45;;;;;;;27.50;41.84;101524.69;6245670;22;20391;-71
2023/07/08 06:44:07;;;;;;;7.10;4.20;;;;;;;27.19;42.75;101520.63;6220765;22;20027;-70
2023/07/08 06:46:34;;;;;;;6.75;4.40;;;;;;;27.29;44.05;101522.53;6219511;22;20015;-71
2023/07/08 06:48:59;;;;;;;9.23;5.03;;;;;;;26.91;42.08;101517.19;6246377;22;20429;-71
2023/07/08 06:51:25;;;;;;;6.57;4.10;;;;;;;26.57;41.86;101517.69;6246719;22;20051;-71
2023/07/08 06:53:51;;;;;;;9.00;4.78;;;;;;;26.58;45.44;101510.50;6221651;22;20011;-71
2023/07/08 06:56:16;;;;;;;10.70;4.80;;;;;;;25.88;44.58;101507.06;6222208;22;20097;-68
2023/07/08 06:58:42;;;;;;;10.20;4.93;;;;;;;25.39;45.44;101505.75;6221668;22;20007;-68
2023/07/08 07:01:07;;;;;;;7.22;4.60;;;;;;;24.90;45.21;101512.34;6246681;22;20007;-68
2023/07/08 07:03:33;;;;;;;8.13;4.53;;;;;;;24.67;47.13;101503.03;6221489;22;20018;-68
2023/07/08 07:05:58;;;;;;;6.88;5.15;;;;;;;24.52;48.09;101504.81;6221741;22;20007;-68
2023/07/08 07:08:24;;;;;;;7.75;4.53;;;;;;;24.49;47.75;101498.75;6220642;22;20090;-68
2023/07/08 07:10:49;;;;;;;9.82;4.88;;;;;;;24.41;48.46;101512.63;6221138;22;20363;-68
2023/07/08 07:13:15;;;;;;;7.32;5.07;;;;;;;24.36;47.17;101509.34;6274202;22;20357;-67
2023/07/08 07:15:40;;;;;;;10.02;5.50;;;;;;;24.35;47.64;101503.13;6220857;22;20157;-68
2023/07/08 07:18:07;;;;;;;8.45;5.40;;;;;;;24.40;50.13;101505.53;6221835;22;20748;-68
2023/07/08 07:20:33;;;;;;;9.02;5.45;;;;;;;24.31;48.65;101516.78;6221703;22;20064;-68
2023/07/08 07:22:58;;;;;;;9.90;5.45;;;;;;;24.34;48.82;101516.63;6195460;22;20065;-68
2023/07/08 07:25:24;;;;;;;9.15;5.38;;;;;;;24.49;50.12;101504.97;6220949;22;20087;-68
2023/07/08 07:27:49;;;;;;;8.70;5.15;;;;;;;24.47;50.83;101490.81;6245998;22;20019;-67
2023/07/08 07:30:15;;;;;;;7.22;5.50;;;;;;;24.53;49.64;101492.25;6219408;22;20365;-67
2023/07/08 07:32:44;;;;;;;10.32;6.25;;;;;;;24.83;49.95;101500.28;6219309;22;20014;-68
2023/07/08 07:35:14;;;;;;;7.15;5.65;;;;;;;24.53;47.35;101506.50;6248483;22;20031;-68
2023/07/08 07:37:41;;;;;;;8.77;5.68;;;;;;;24.57;48.29;101496.47;6222164;22;20510;-68
2023/07/08 07:40:13;;;;;;;6.60;5.50;;;;;;;24.58;48.96;101494.66;6248657;22;20003;-68
2023/07/08 07:42:40;;;;;;;10.82;5.90;;;;;;;24.66;49.14;101501.31;6223177;22;20008;-67
2023/07/08 07:45:07;;;;;;;10.27;6.22;;;;;;;24.65;49.79;101501.41;6248119;22;20382;-67
2023/07/08 07:47:33;;;;;;;10.23;6.30;;;;;;;24.66;48.04;101495.09;6222346;22;20019;-67
2023/07/08 07:49:59;;;;;;;11.38;6.07;;;;;;;24.87;51.42;101503.66;6222151;22;20046;-70
2023/07/08 07:52:25;;;;;;;8.25;5.80;;;;;;;25.09;51.49;101500.47;6222108;22;20004;-71
2023/07/08 07:54:54;;;;;;;8.07;5.97;;;;;;;25.23;50.17;101507.66;6248604;22;20023;-71
2023/07/08 07:57:22;;;;;;;10.18;7.05;;;;;;;25.18;48.20;101499.88;6223265;22;20090;-67
2023/07/08 07:59:49;;;;;;;11.73;6.47;;;;;;;25.20;48.30;101505.19;6247883;22;20007;-71
2023/07/08 08:02:15;;;;;;;10.15;6.68;;;;;;;25.32;48.70;101503.56;6222469;22;20007;-71
2023/07/08 08:04:40;;;;;;;10.25;6.55;;;;;;;25.29;46.19;101506.41;6223000;22;20011;-68
2023/07/08 08:07:06;;;;;;;10.27;6.30;;;;;;;25.35;48.21;101508.72;6248018;22;20023;-68
2023/07/08 08:09:31;;;;;;;11.60;7.10;;;;;;;25.42;47.63;101508.22;6247192;22;20019;-67
2023/07/08 08:11:57;;;;;;;10.20;5.72;;;;;;;25.80;50.12;101504.00;6196222;22;20514;-68
2023/07/08 08:14:22;;;;;;;11.10;7.03;;;;;;;25.68;47.21;101510.19;6223192;22;20380;-69
2023/07/08 08:16:48;;;;;;;13.82;6.45;;;;;;;25.72;46.74;101509.03;6198132;22;20035;-71
2023/07/08 08:19:13;;;;;;;8.63;6.25;;;;;;;25.81;46.74;101508.41;6222874;22;20008;-68
2023/07/08 08:21:39;;;;;;;9.13;6.15;;;;;;;25.93;47.82;101509.44;6248788;22;19999;-68
2023/07/08 08:24:04;;;;;;;10.45;6.60;;;;;;;25.89;47.03;101508.78;6221878;22;20011;-68
2023/07/08 08:26:30;;;;;;;9.80;6.97;;;;;;;25.96;47.01;101520.00;6223215;22;20011;-68
2023/07/08 08:28:56;;;;;;;8.70;6.80;;;;;;;25.93;46.94;101517.47;6198414;22;20010;-68
2023/07/08 08:31:22;;;;;;;10.05;6.85;;;;;;;26.00;46.00;101521.50;6222776;22;20026;-68
2023/07/08 08:33:54;;;;;;;12.82;6.63;;;;;;;25.97;46.72;101520.84;6221524;22;20012;-71
2023/07/08 08:36:20;;;;;;;9.43;6.45;;;;;;;26.00;47.67;101523.31;6222871;22;20019;-68
2023/07/08 08:38:46;;;;;;;11.48;7.57;;;;;;;26.02;46.73;101532.16;6222394;22;20056;-68
2023/07/08 08:41:13;;;;;;;11.60;6.72;;;;;;;26.10;46.77;101535.19;6198192;22;20069;-68
2023/07/08 08:43:40;;;;;;;9.77;7.07;;;;;;;26.08;47.30;101529.09;6223090;22;20007;-68
2023/07/08 08:46:15;;;;;;;9.88;6.60;;;;;;;26.23;46.83;101535.25;6247049;22;20003;-68
2023/07/08 08:49:02;;;;;;;12.40;7.15;;;;;;;26.36;48.67;101533.47;6247752;22;20014;-69
2023/07/08 08:51:31;;;;;;;10.15;6.95;;;;;;;26.43;48.13;101539.25;6248488;22;20004;-71
2023/07/08 08:53:58;;;;;;;11.40;7.20;;;;;;;26.49;46.33;101528.09;6247101;22;20007;-71
2023/07/08 08:56:42;;;;;;;9.18;7.20;;;;;;;26.67;46.70;101531.34;6222386;22;20367;-72
2023/07/08 08:59:43;;;;;;;8.82;7.47;;;;;;;26.76;45.79;101537.94;6274293;22;20038;-72
2023/07/08 09:02:37;;;;;;;10.88;7.18;;;;;;;26.70;45.42;101530.31;6247503;22;20019;-72
2023/07/08 09:05:09;;;;;;;9.07;6.82;;;;;;;26.84;46.45;101526.66;6245870;22;20098;-71
2023/07/08 09:07:45;;;;;;;10.00;6.95;;;;;;;26.91;44.53;101536.88;6246526;22;20133;-72
2023/07/08 09:10:29;;;;;;;15.48;6.95;;;;;;;26.79;44.16;101540.41;6247835;22;20094;-72
2023/07/08 09:12:58;;;;;;;8.93;6.50;;;;;;;26.83;43.41;101528.50;6223112;22;20024;-72
2023/07/08 09:15:26;;;;;;;9.63;5.93;;;;;;;26.96;43.55;101534.72;6222716;22;20098;-72
2023/07/08 09:17:56;;;;;;;12.15;7.35;;;;;;;27.08;42.85;101534.81;6247883;22;20468;-72
2023/07/08 09:20:28;;;;;;;10.70;7.00;;;;;;;27.14;43.88;101535.25;6199417;22;20012;-72
2023/07/08 09:22:56;;;;;;;11.82;6.70;;;;;;;27.13;43.52;101536.22;6247382;22;19999;-72
2023/07/08 09:25:26;;;;;;;9.43;6.55;;;;;;;27.30;45.54;101528.78;6248476;22;20011;-72
2023/07/08 09:27:51;;;;;;;9.67;6.60;;;;;;;27.37;44.21;101530.09;6247590;22;20007;-72
2023/07/08 09:30:20;;;;;;;10.13;6.90;;;;;;;27.52;43.91;101533.50;6223263;22;20258;-72
2023/07/08 09:32:49;;;;;;;10.60;7.22;;;;;;;27.61;42.80;101531.97;6247920;22;20007;-71
2023/07/08 09:35:23;;;;;;;14.20;6.43;;;;;;;27.72;44.02;101532.03;6223281;22;20011;-73
2023/07/08 09:37:49;;;;;;;10.32;6.60;;;;;;;27.80;44.07;101528.75;6246652;22;20003;-72
2023/07/08 09:40:18;;;;;;;8.88;6.55;;;;;;;27.89;45.21;101525.41;6198037;22;20086;-71
2023/07/08 09:42:49;;;;;;;10.10;6.70;;;;;;;27.90;42.86;101524.44;6248492;22;20035;-71
2023/07/08 09:45:22;;;;;;;11.80;7.00;;;;;;;27.91;42.85;101534.22;6247688;22;20030;-72
2023/07/08 09:47:52;;;;;;;13.38;7.00;;;;;;;28.08;43.10;101527.59;6247711;22;20093;-71
2023/07/08 09:50:28;;;;;;;10.93;6.97;;;;;;;28.26;42.76;101527.19;6222404;22;20007;-71
2023/07/08 09:52:57;;;;;;;9.50;6.85;;;;;;;28.23;40.77;101533.69;6246520;22;20007;-72
2023/07/08 09:55:23;;;;;;;8.68;6.70;;;;;;;28.28;41.24;101531.47;6248416;22;20464;-71
2023/07/08 09:57:52;;;;;;;12.40;6.95;;;;;;;28.37;42.09;101531.75;6248152;22;20015;-71
2023/07/08 10:00:28;;;;;;;11.60;6.70;;;;;;;28.50;42.79;101519.03;6248468;22;19996;-71
2023/07/08 10:02:56;;;;;;;11.68;6.38;;;;;;;28.59;40.11;101517.47;6246983;22;20008;-71
2023/07/08 10:05:32;;;;;;;14.02;6.85;;;;;;;28.57;39.63;101520.28;6222661;22;20012;-71
2023/07/08 10:07:58;;;;;;;13.43;7.50;;;;;;;28.68;40.15;101516.81;6246998;22;20004;-72
2023/07/08 10:10:46;;;;;;;11.65;6.90;;;;;;;28.82;40.82;101503.09;6222264;22;20016;-71
2023/07/08 10:13:24;;;;;;;10.68;7.47;;;;;;;28.84;40.40;101506.50;6245909;22;20015;-71
2023/07/08 10:15:58;;;;;;;9.15;6.43;;;;;;;28.89;39.61;101503.44;6247225;22;20003;-71
2023/07/08 10:18:28;;;;;;;13.00;7.50;;;;;;;28.98;38.53;101507.28;6247660;22;20004;-72
2023/07/08 10:21:12;;;;;;;12.55;7.32;;;;;;;29.03;37.07;101505.94;6247104;22;20465;-72
2023/07/08 10:23:50;;;;;;;14.07;7.35;;;;;;;29.12;39.04;101506.16;6246495;22;20007;-72
2023/07/08 10:26:31;;;;;;;13.45;6.70;;;;;;;29.16;37.82;101502.22;6246670;22;20061;-72
2023/07/08 10:29:12;;;;;;;10.30;7.07;;;;;;;29.18;38.11;101508.38;6247652;22;20086;-71
2023/07/08 10:31:48;;;;;;;12.98;7.35;;;;;;;29.29;37.01;101505.69;6246056;22;20003;-71
2023/07/08 10:34:22;;;;;;;10.95;6.97;;;;;;;29.38;39.12;101509.50;6245584;22;20003;-72
2023/07/08 10:36:51;;;;;;;11.75;6.72;;;;;;;29.36;37.57;101512.28;6247762;22;20430;-71
2023/07/08 10:39:16;;;;;;;12.27;6.63;;;;;;;29.51;39.76;101512.03;6246810;22;20509;-71
2023/07/08 10:42:02;;;;;;;8.95;6.63;;;;;;;29.59;38.18;101511.41;6273860;22;20031;-71
2023/07/08 10:44:34;;;;;;;9.13;6.32;;;;;;;29.64;37.66;101512.75;6247215;22;20310;-71
2023/07/08 10:47:02;;;;;;;8.85;6.63;;;;;;;29.62;35.66;101514.72;6247340;22;20010;-71
2023/07/08 10:49:43;;;;;;;8.40;6.55;;;;;;;29.84;37.64;101521.94;6247920;22;20037;-71
2023/07/08 10:52:39;;;;;;;8.80;6.85;;;;;;;29.88;35.56;101515.31;6247610;22;20099;-72
2023/07/08 10:55:26;;;;;;;8.95;6.55;;;;;;;29.87;34.69;101515.44;6231893;22;20377;-72
2023/07/08 10:57:54;;;;;;;10.30;6.70;;;;;;;29.84;32.56;101515.66;6247089;22;20007;-72
2023/07/08 11:00:37;;;;;;;10.63;6.38;;;;;;;29.91;33.55;101516.03;6247990;22;20000;-71
2023/07/08 11:03:42;;;;;;;9.07;6.40;;;;;;;30.04;32.43;101512.16;6247427;22;20157;-72
2023/07/08 11:06:31;;;;;;;10.02;6.25;;;;;;;30.06;32.91;101509.34;6247255;22;20008;-72
2023/07/08 11:09:02;;;;;;;9.10;6.90;;;;;;;30.15;31.71;101515.81;6246229;22;20010;-72
2023/07/08 11:11:43;;;;;;;9.43;6.80;;;;;;;30.21;30.57;101513.44;6276005;22;20018;-72
2023/07/08 11:14:25;;;;;;;8.45;6.70;;;;;;;30.20;31.31;101509.03;6249472;22;20003;-72
2023/07/08 11:16:56;;;;;;;11.18;6.82;;;;;;;30.28;31.42;101507.50;6249139;22;20079;-72
2023/07/08 11:19:45;;;;;;;7.78;6.20;;;;;;;30.32;31.87;101511.66;6275671;22;19999;-72
2023/07/08 11:22:13;;;;;;;11.38;6.50;;;;;;;30.43;31.40;101508.06;6248938;22;20007;-72
2023/07/08 11:24:50;;;;;;;10.73;6.60;;;;;;;30.47;31.94;101506.81;6247406;22;19999;-72
2023/07/08 11:27:37;;;;;;;9.55;6.38;;;;;;;30.49;30.97;101504.84;6249195;22;20007;-71
2023/07/08 11:30:14;;;;;;;8.38;6.80;;;;;;;30.50;31.77;101514.66;6249126;22;20011;-71
2023/07/08 11:32:43;;;;;;;8.07;6.18;;;;;;;30.50;29.30;101501.13;6247795;22;20014;-72
2023/07/08 11:35:21;;;;;;;8.23;7.03;;;;;;;30.74;30.89;101496.28;6248763;22;20011;-71